sensor_id;sensor_type;location;lat;lon;timestamp;P1;durP1;ratioP1;P2;durP2;ratioP2
72406;SDS011;60396;47.550;18.828;2023-06-05T00:01:10;5.60;;;1.80;;
72406;SDS011;60396;47.550;18.828;2023-06-05T00:03:38;7.95;;;2.17;;
72406;SDS011;60396;47.550;18.828;2023-06-05T00:06:07;7.45;;;2.05;;
72406;SDS011;60396;47.550;18.828;2023-06-05T00:08:34;8.43;;;2.17;;
72406;SDS011;60396;47.550;18.828;2023-06-05T00:11:02;6.78;;;1.95;;
72406;SDS011;60396;47.550;18.828;2023-06-05T00:13:30;5.20;;;1.55;;
72406;SDS011;60396;47.550;18.828;2023-06-05T00:15:57;6.65;;;1.60;;
72406;SDS011;60396;47.550;18.828;2023-06-05T00:18:25;5.97;;;1.12;;
72406;SDS011;60396;47.550;18.828;2023-06-05T00:20:53;7.47;;;1.70;;
72406;SDS011;60396;47.550;18.828;2023-06-05T00:23:21;5.55;;;1.60;;
72406;SDS011;60396;47.550;18.828;2023-06-05T00:25:49;4.93;;;1.60;;
72406;SDS011;60396;47.550;18.828;2023-06-05T00:28:16;6.70;;;1.87;;
72406;SDS011;60396;47.550;18.828;2023-06-05T00:30:45;5.22;;;1.67;;
72406;SDS011;60396;47.550;18.828;2023-06-05T00:33:13;6.43;;;1.40;;
72406;SDS011;60396;47.550;18.828;2023-06-05T00:35:41;5.75;;;1.98;;
72406;SDS011;60396;47.550;18.828;2023-06-05T00:38:08;6.22;;;1.50;;
72406;SDS011;60396;47.550;18.828;2023-06-05T00:40:38;5.20;;;1.55;;
72406;SDS011;60396;47.550;18.828;2023-06-05T00:43:05;6.43;;;1.83;;
72406;SDS011;60396;47.550;18.828;2023-06-05T00:45:34;6.53;;;1.53;;
72406;SDS011;60396;47.550;18.828;2023-06-05T00:48:02;7.12;;;1.70;;
72406;SDS011;60396;47.550;18.828;2023-06-05T00:50:31;5.68;;;1.55;;
72406;SDS011;60396;47.550;18.828;2023-06-05T00:53:00;5.35;;;1.75;;
72406;SDS011;60396;47.550;18.828;2023-06-05T00:55:29;8.80;;;1.40;;
72406;SDS011;60396;47.550;18.828;2023-06-05T00:57:57;5.13;;;1.70;;
72406;SDS011;60396;47.550;18.828;2023-06-05T01:00:24;5.82;;;1.60;;
72406;SDS011;60396;47.550;18.828;2023-06-05T01:02:53;7.10;;;1.58;;
72406;SDS011;60396;47.550;18.828;2023-06-05T01:05:24;5.78;;;1.70;;
72406;SDS011;60396;47.550;18.828;2023-06-05T01:07:53;6.22;;;1.83;;
72406;SDS011;60396;47.550;18.828;2023-06-05T01:10:21;7.53;;;2.20;;
72406;SDS011;60396;47.550;18.828;2023-06-05T01:15:44;6.72;;;1.70;;
72406;SDS011;60396;47.550;18.828;2023-06-05T01:18:12;7.68;;;1.87;;
72406;SDS011;60396;47.550;18.828;2023-06-05T01:20:40;5.05;;;1.62;;
72406;SDS011;60396;47.550;18.828;2023-06-05T01:23:09;7.00;;;1.73;;
72406;SDS011;60396;47.550;18.828;2023-06-05T01:25:37;5.68;;;1.60;;
72406;SDS011;60396;47.550;18.828;2023-06-05T01:30:45;6.45;;;2.33;;
72406;SDS011;60396;47.550;18.828;2023-06-05T01:33:24;4.75;;;1.75;;
72406;SDS011;60396;47.550;18.828;2023-06-05T01:35:55;6.70;;;1.93;;
72406;SDS011;60396;47.550;18.828;2023-06-05T01:38:23;5.22;;;1.65;;
72406;SDS011;60396;47.550;18.828;2023-06-05T01:40:51;7.65;;;1.98;;
72406;SDS011;60396;47.550;18.828;2023-06-05T01:43:20;7.70;;;2.37;;
72406;SDS011;60396;47.550;18.828;2023-06-05T01:45:48;6.70;;;2.15;;
72406;SDS011;60396;47.550;18.828;2023-06-05T01:48:16;6.03;;;1.90;;
72406;SDS011;60396;47.550;18.828;2023-06-05T01:50:44;7.22;;;1.70;;
72406;SDS011;60396;47.550;18.828;2023-06-05T01:53:12;7.15;;;2.00;;
72406;SDS011;60396;47.550;18.828;2023-06-05T01:55:40;8.32;;;2.10;;
72406;SDS011;60396;47.550;18.828;2023-06-05T01:58:09;7.75;;;1.80;;
72406;SDS011;60396;47.550;18.828;2023-06-05T02:00:36;6.97;;;1.90;;
72406;SDS011;60396;47.550;18.828;2023-06-05T02:03:04;7.62;;;2.28;;
72406;SDS011;60396;47.550;18.828;2023-06-05T02:05:32;7.18;;;1.77;;
72406;SDS011;60396;47.550;18.828;2023-06-05T02:08:00;7.20;;;2.10;;
72406;SDS011;60396;47.550;18.828;2023-06-05T02:10:33;6.87;;;2.37;;
72406;SDS011;60396;47.550;18.828;2023-06-05T02:13:01;5.80;;;1.80;;
72406;SDS011;60396;47.550;18.828;2023-06-05T02:15:30;7.07;;;1.83;;
72406;SDS011;60396;47.550;18.828;2023-06-05T02:18:01;5.62;;;1.80;;
72406;SDS011;60396;47.550;18.828;2023-06-05T02:20:31;8.70;;;2.42;;
72406;SDS011;60396;47.550;18.828;2023-06-05T02:22:59;5.10;;;1.42;;
72406;SDS011;60396;47.550;18.828;2023-06-05T02:25:28;8.00;;;2.30;;
72406;SDS011;60396;47.550;18.828;2023-06-05T02:27:56;5.95;;;2.08;;
72406;SDS011;60396;47.550;18.828;2023-06-05T02:30:24;8.13;;;1.77;;
72406;SDS011;60396;47.550;18.828;2023-06-05T02:32:52;7.35;;;1.83;;
72406;SDS011;60396;47.550;18.828;2023-06-05T02:35:29;6.00;;;1.70;;
72406;SDS011;60396;47.550;18.828;2023-06-05T02:37:57;5.13;;;1.50;;
72406;SDS011;60396;47.550;18.828;2023-06-05T02:40:25;6.12;;;1.60;;
72406;SDS011;60396;47.550;18.828;2023-06-05T02:42:52;6.28;;;1.70;;
72406;SDS011;60396;47.550;18.828;2023-06-05T02:45:20;7.32;;;1.90;;
72406;SDS011;60396;47.550;18.828;2023-06-05T02:47:48;6.03;;;1.90;;
72406;SDS011;60396;47.550;18.828;2023-06-05T02:50:16;5.50;;;1.87;;
72406;SDS011;60396;47.550;18.828;2023-06-05T02:52:44;6.18;;;1.90;;
72406;SDS011;60396;47.550;18.828;2023-06-05T02:55:12;4.97;;;1.40;;
72406;SDS011;60396;47.550;18.828;2023-06-05T02:57:41;6.57;;;2.10;;
72406;SDS011;60396;47.550;18.828;2023-06-05T03:00:10;6.87;;;1.77;;
72406;SDS011;60396;47.550;18.828;2023-06-05T03:02:47;5.60;;;1.73;;
72406;SDS011;60396;47.550;18.828;2023-06-05T03:05:17;7.30;;;1.70;;
72406;SDS011;60396;47.550;18.828;2023-06-05T03:07:45;5.00;;;1.58;;
72406;SDS011;60396;47.550;18.828;2023-06-05T03:10:13;6.40;;;1.80;;
72406;SDS011;60396;47.550;18.828;2023-06-05T03:12:41;8.13;;;1.90;;
72406;SDS011;60396;47.550;18.828;2023-06-05T03:15:09;8.00;;;2.20;;
72406;SDS011;60396;47.550;18.828;2023-06-05T03:17:38;6.10;;;1.77;;
72406;SDS011;60396;47.550;18.828;2023-06-05T03:20:07;6.47;;;1.62;;
72406;SDS011;60396;47.550;18.828;2023-06-05T03:22:38;6.78;;;1.80;;
72406;SDS011;60396;47.550;18.828;2023-06-05T03:25:08;6.25;;;1.70;;
72406;SDS011;60396;47.550;18.828;2023-06-05T03:27:37;7.90;;;1.83;;
72406;SDS011;60396;47.550;18.828;2023-06-05T03:30:05;5.45;;;1.73;;
72406;SDS011;60396;47.550;18.828;2023-06-05T03:32:37;5.30;;;1.70;;
72406;SDS011;60396;47.550;18.828;2023-06-05T03:35:05;7.28;;;1.75;;
72406;SDS011;60396;47.550;18.828;2023-06-05T03:37:35;7.07;;;1.75;;
72406;SDS011;60396;47.550;18.828;2023-06-05T03:40:03;6.87;;;1.70;;
72406;SDS011;60396;47.550;18.828;2023-06-05T03:42:32;5.57;;;1.73;;
72406;SDS011;60396;47.550;18.828;2023-06-05T03:44:59;6.15;;;1.90;;
72406;SDS011;60396;47.550;18.828;2023-06-05T03:47:29;6.35;;;1.62;;
72406;SDS011;60396;47.550;18.828;2023-06-05T03:49:57;6.07;;;1.90;;
72406;SDS011;60396;47.550;18.828;2023-06-05T03:52:29;5.17;;;2.00;;
72406;SDS011;60396;47.550;18.828;2023-06-05T03:54:56;7.65;;;2.15;;
72406;SDS011;60396;47.550;18.828;2023-06-05T03:57:24;7.30;;;2.35;;
72406;SDS011;60396;47.550;18.828;2023-06-05T03:59:52;7.35;;;2.20;;
72406;SDS011;60396;47.550;18.828;2023-06-05T04:02:20;9.65;;;2.50;;
72406;SDS011;60396;47.550;18.828;2023-06-05T04:04:48;7.13;;;2.27;;
72406;SDS011;60396;47.550;18.828;2023-06-05T04:07:17;7.10;;;2.37;;
72406;SDS011;60396;47.550;18.828;2023-06-05T04:09:45;8.27;;;1.90;;
72406;SDS011;60396;47.550;18.828;2023-06-05T04:12:13;7.68;;;2.20;;
72406;SDS011;60396;47.550;18.828;2023-06-05T04:14:42;8.95;;;1.98;;
72406;SDS011;60396;47.550;18.828;2023-06-05T04:17:09;7.63;;;2.10;;
72406;SDS011;60396;47.550;18.828;2023-06-05T04:19:38;7.32;;;2.20;;
72406;SDS011;60396;47.550;18.828;2023-06-05T04:22:06;6.07;;;1.95;;
72406;SDS011;60396;47.550;18.828;2023-06-05T04:24:34;6.00;;;2.08;;
72406;SDS011;60396;47.550;18.828;2023-06-05T04:27:01;7.32;;;2.35;;
72406;SDS011;60396;47.550;18.828;2023-06-05T04:29:30;10.10;;;2.67;;
72406;SDS011;60396;47.550;18.828;2023-06-05T04:31:59;7.20;;;2.40;;
72406;SDS011;60396;47.550;18.828;2023-06-05T04:34:27;8.88;;;2.40;;
72406;SDS011;60396;47.550;18.828;2023-06-05T04:36:55;9.23;;;2.58;;
72406;SDS011;60396;47.550;18.828;2023-06-05T04:39:23;11.90;;;2.50;;
72406;SDS011;60396;47.550;18.828;2023-06-05T04:41:52;6.17;;;2.20;;
72406;SDS011;60396;47.550;18.828;2023-06-05T04:44:39;9.95;;;2.37;;
72406;SDS011;60396;47.550;18.828;2023-06-05T04:47:08;7.00;;;2.20;;
72406;SDS011;60396;47.550;18.828;2023-06-05T04:49:36;7.65;;;2.37;;
72406;SDS011;60396;47.550;18.828;2023-06-05T04:52:03;7.87;;;1.98;;
72406;SDS011;60396;47.550;18.828;2023-06-05T04:54:33;11.53;;;2.40;;
72406;SDS011;60396;47.550;18.828;2023-06-05T04:57:00;11.40;;;2.47;;
72406;SDS011;60396;47.550;18.828;2023-06-05T04:59:29;7.90;;;2.65;;
72406;SDS011;60396;47.550;18.828;2023-06-05T05:02:00;12.52;;;2.80;;
72406;SDS011;60396;47.550;18.828;2023-06-05T05:04:28;11.65;;;2.58;;
72406;SDS011;60396;47.550;18.828;2023-06-05T05:06:57;14.67;;;3.53;;
72406;SDS011;60396;47.550;18.828;2023-06-05T05:09:31;8.85;;;2.70;;
72406;SDS011;60396;47.550;18.828;2023-06-05T05:12:00;10.63;;;2.67;;
72406;SDS011;60396;47.550;18.828;2023-06-05T05:14:28;9.85;;;2.53;;
72406;SDS011;60396;47.550;18.828;2023-06-05T05:16:57;6.47;;;1.98;;
72406;SDS011;60396;47.550;18.828;2023-06-05T05:19:25;7.40;;;2.10;;
72406;SDS011;60396;47.550;18.828;2023-06-05T05:21:53;7.35;;;2.08;;
72406;SDS011;60396;47.550;18.828;2023-06-05T05:24:21;8.40;;;2.10;;
72406;SDS011;60396;47.550;18.828;2023-06-05T05:26:49;7.22;;;2.10;;
72406;SDS011;60396;47.550;18.828;2023-06-05T05:29:18;7.03;;;2.45;;
72406;SDS011;60396;47.550;18.828;2023-06-05T05:31:46;7.50;;;1.93;;
72406;SDS011;60396;47.550;18.828;2023-06-05T05:34:14;9.35;;;2.40;;
72406;SDS011;60396;47.550;18.828;2023-06-05T05:36:41;6.18;;;2.20;;
72406;SDS011;60396;47.550;18.828;2023-06-05T05:39:09;9.77;;;2.35;;
72406;SDS011;60396;47.550;18.828;2023-06-05T05:41:37;6.70;;;2.20;;
72406;SDS011;60396;47.550;18.828;2023-06-05T05:44:05;11.73;;;2.57;;
72406;SDS011;60396;47.550;18.828;2023-06-05T05:46:33;11.63;;;2.60;;
72406;SDS011;60396;47.550;18.828;2023-06-05T05:49:00;6.78;;;2.22;;
72406;SDS011;60396;47.550;18.828;2023-06-05T05:51:28;7.25;;;2.40;;
72406;SDS011;60396;47.550;18.828;2023-06-05T05:53:56;8.27;;;2.00;;
72406;SDS011;60396;47.550;18.828;2023-06-05T05:56:24;7.77;;;2.20;;
72406;SDS011;60396;47.550;18.828;2023-06-05T05:58:51;7.95;;;1.80;;
72406;SDS011;60396;47.550;18.828;2023-06-05T06:01:19;6.55;;;2.22;;
72406;SDS011;60396;47.550;18.828;2023-06-05T06:03:49;6.82;;;2.35;;
72406;SDS011;60396;47.550;18.828;2023-06-05T06:06:17;6.65;;;2.58;;
72406;SDS011;60396;47.550;18.828;2023-06-05T06:08:44;8.70;;;2.27;;
72406;SDS011;60396;47.550;18.828;2023-06-05T06:11:12;9.57;;;2.62;;
72406;SDS011;60396;47.550;18.828;2023-06-05T06:13:40;10.02;;;2.37;;
72406;SDS011;60396;47.550;18.828;2023-06-05T06:16:08;8.30;;;2.25;;
72406;SDS011;60396;47.550;18.828;2023-06-05T06:18:37;11.88;;;2.45;;
72406;SDS011;60396;47.550;18.828;2023-06-05T06:21:04;12.73;;;2.33;;
72406;SDS011;60396;47.550;18.828;2023-06-05T06:23:32;9.65;;;3.12;;
72406;SDS011;60396;47.550;18.828;2023-06-05T06:26:00;7.53;;;2.20;;
72406;SDS011;60396;47.550;18.828;2023-06-05T06:28:28;7.68;;;1.95;;
72406;SDS011;60396;47.550;18.828;2023-06-05T06:30:56;9.25;;;2.40;;
72406;SDS011;60396;47.550;18.828;2023-06-05T06:33:24;7.10;;;2.10;;
72406;SDS011;60396;47.550;18.828;2023-06-05T06:35:51;6.07;;;2.22;;
72406;SDS011;60396;47.550;18.828;2023-06-05T06:38:19;8.23;;;2.50;;
72406;SDS011;60396;47.550;18.828;2023-06-05T06:40:47;7.28;;;2.20;;
72406;SDS011;60396;47.550;18.828;2023-06-05T06:43:15;8.07;;;2.33;;
72406;SDS011;60396;47.550;18.828;2023-06-05T06:45:44;7.93;;;1.93;;
72406;SDS011;60396;47.550;18.828;2023-06-05T06:48:12;7.57;;;2.30;;
72406;SDS011;60396;47.550;18.828;2023-06-05T06:50:39;6.68;;;2.30;;
72406;SDS011;60396;47.550;18.828;2023-06-05T06:53:07;5.97;;;1.80;;
72406;SDS011;60396;47.550;18.828;2023-06-05T06:55:35;11.57;;;2.40;;
72406;SDS011;60396;47.550;18.828;2023-06-05T06:58:03;13.00;;;2.73;;
72406;SDS011;60396;47.550;18.828;2023-06-05T07:00:32;9.63;;;2.17;;
72406;SDS011;60396;47.550;18.828;2023-06-05T07:03:00;5.80;;;2.15;;
72406;SDS011;60396;47.550;18.828;2023-06-05T07:05:28;6.55;;;2.30;;
72406;SDS011;60396;47.550;18.828;2023-06-05T07:07:55;8.50;;;2.35;;
72406;SDS011;60396;47.550;18.828;2023-06-05T07:10:28;8.93;;;2.47;;
72406;SDS011;60396;47.550;18.828;2023-06-05T07:12:56;7.15;;;2.35;;
72406;SDS011;60396;47.550;18.828;2023-06-05T07:15:24;8.63;;;2.55;;
72406;SDS011;60396;47.550;18.828;2023-06-05T07:17:51;6.68;;;2.03;;
72406;SDS011;60396;47.550;18.828;2023-06-05T07:20:19;8.73;;;2.47;;
72406;SDS011;60396;47.550;18.828;2023-06-05T07:22:46;8.30;;;2.70;;
72406;SDS011;60396;47.550;18.828;2023-06-05T07:25:14;12.82;;;2.80;;
72406;SDS011;60396;47.550;18.828;2023-06-05T07:27:43;6.95;;;2.37;;
72406;SDS011;60396;47.550;18.828;2023-06-05T07:30:11;7.95;;;2.45;;
72406;SDS011;60396;47.550;18.828;2023-06-05T07:32:42;8.07;;;2.58;;
72406;SDS011;60396;47.550;18.828;2023-06-05T07:35:10;7.47;;;2.13;;
72406;SDS011;60396;47.550;18.828;2023-06-05T07:37:38;7.35;;;2.42;;
72406;SDS011;60396;47.550;18.828;2023-06-05T07:40:06;8.65;;;2.50;;
72406;SDS011;60396;47.550;18.828;2023-06-05T07:42:35;10.43;;;2.40;;
72406;SDS011;60396;47.550;18.828;2023-06-05T07:45:03;9.63;;;2.40;;
72406;SDS011;60396;47.550;18.828;2023-06-05T07:47:32;9.67;;;2.23;;
72406;SDS011;60396;47.550;18.828;2023-06-05T07:50:00;8.77;;;2.20;;
72406;SDS011;60396;47.550;18.828;2023-06-05T07:52:30;7.62;;;2.10;;
72406;SDS011;60396;47.550;18.828;2023-06-05T07:54:58;7.65;;;2.30;;
72406;SDS011;60396;47.550;18.828;2023-06-05T07:57:26;7.25;;;2.40;;
72406;SDS011;60396;47.550;18.828;2023-06-05T07:59:57;6.73;;;2.60;;
72406;SDS011;60396;47.550;18.828;2023-06-05T08:02:25;6.82;;;2.12;;
72406;SDS011;60396;47.550;18.828;2023-06-05T08:04:53;8.57;;;2.28;;
72406;SDS011;60396;47.550;18.828;2023-06-05T08:07:20;7.93;;;2.20;;
72406;SDS011;60396;47.550;18.828;2023-06-05T08:09:48;8.43;;;2.45;;
72406;SDS011;60396;47.550;18.828;2023-06-05T08:12:16;9.13;;;2.40;;
72406;SDS011;60396;47.550;18.828;2023-06-05T08:14:43;8.23;;;2.30;;
72406;SDS011;60396;47.550;18.828;2023-06-05T08:17:11;6.62;;;2.10;;
72406;SDS011;60396;47.550;18.828;2023-06-05T08:19:39;8.00;;;2.53;;
72406;SDS011;60396;47.550;18.828;2023-06-05T08:22:07;9.98;;;2.33;;
72406;SDS011;60396;47.550;18.828;2023-06-05T08:24:34;20.27;;;2.70;;
72406;SDS011;60396;47.550;18.828;2023-06-05T08:27:03;7.45;;;2.15;;
72406;SDS011;60396;47.550;18.828;2023-06-05T08:29:32;8.93;;;2.40;;
72406;SDS011;60396;47.550;18.828;2023-06-05T08:32:04;7.07;;;2.40;;
72406;SDS011;60396;47.550;18.828;2023-06-05T08:34:32;8.05;;;2.17;;
72406;SDS011;60396;47.550;18.828;2023-06-05T08:36:59;7.63;;;2.80;;
72406;SDS011;60396;47.550;18.828;2023-06-05T08:39:28;8.88;;;2.35;;
72406;SDS011;60396;47.550;18.828;2023-06-05T08:41:59;9.27;;;2.90;;
72406;SDS011;60396;47.550;18.828;2023-06-05T08:44:28;12.52;;;3.22;;
72406;SDS011;60396;47.550;18.828;2023-06-05T08:47:00;7.68;;;2.45;;
72406;SDS011;60396;47.550;18.828;2023-06-05T08:49:29;9.50;;;2.43;;
72406;SDS011;60396;47.550;18.828;2023-06-05T08:52:01;9.98;;;2.70;;
72406;SDS011;60396;47.550;18.828;2023-06-05T08:54:34;12.52;;;2.85;;
72406;SDS011;60396;47.550;18.828;2023-06-05T08:57:07;8.77;;;2.50;;
72406;SDS011;60396;47.550;18.828;2023-06-05T08:59:35;10.48;;;3.22;;
72406;SDS011;60396;47.550;18.828;2023-06-05T09:02:03;9.40;;;3.00;;
72406;SDS011;60396;47.550;18.828;2023-06-05T09:04:31;8.95;;;2.42;;
72406;SDS011;60396;47.550;18.828;2023-06-05T09:07:00;9.35;;;2.75;;
72406;SDS011;60396;47.550;18.828;2023-06-05T09:09:27;10.32;;;3.00;;
72406;SDS011;60396;47.550;18.828;2023-06-05T09:12:02;8.85;;;2.60;;
72406;SDS011;60396;47.550;18.828;2023-06-05T09:14:34;8.63;;;2.23;;
72406;SDS011;60396;47.550;18.828;2023-06-05T09:17:02;8.50;;;2.33;;
72406;SDS011;60396;47.550;18.828;2023-06-05T09:19:36;7.40;;;2.60;;
72406;SDS011;60396;47.550;18.828;2023-06-05T09:22:06;8.77;;;2.40;;
72406;SDS011;60396;47.550;18.828;2023-06-05T09:24:34;6.50;;;2.37;;
72406;SDS011;60396;47.550;18.828;2023-06-05T09:27:11;9.27;;;2.27;;
72406;SDS011;60396;47.550;18.828;2023-06-05T09:29:44;11.18;;;2.50;;
72406;SDS011;60396;47.550;18.828;2023-06-05T09:32:16;9.15;;;2.90;;
72406;SDS011;60396;47.550;18.828;2023-06-05T09:34:47;7.00;;;2.50;;
72406;SDS011;60396;47.550;18.828;2023-06-05T09:37:33;7.40;;;2.42;;
72406;SDS011;60396;47.550;18.828;2023-06-05T09:40:04;10.63;;;2.80;;
72406;SDS011;60396;47.550;18.828;2023-06-05T09:42:35;9.90;;;2.80;;
72406;SDS011;60396;47.550;18.828;2023-06-05T09:45:02;9.23;;;2.70;;
72406;SDS011;60396;47.550;18.828;2023-06-05T09:47:32;10.82;;;2.80;;
72406;SDS011;60396;47.550;18.828;2023-06-05T09:50:22;11.88;;;2.40;;
72406;SDS011;60396;47.550;18.828;2023-06-05T09:52:55;9.33;;;2.57;;
72406;SDS011;60396;47.550;18.828;2023-06-05T09:55:23;7.87;;;2.37;;
72406;SDS011;60396;47.550;18.828;2023-06-05T09:57:52;12.68;;;2.45;;
72406;SDS011;60396;47.550;18.828;2023-06-05T10:00:21;10.82;;;2.60;;
72406;SDS011;60396;47.550;18.828;2023-06-05T10:02:49;7.22;;;2.45;;
72406;SDS011;60396;47.550;18.828;2023-06-05T10:05:18;10.17;;;2.67;;
72406;SDS011;60396;47.550;18.828;2023-06-05T10:07:48;16.02;;;2.47;;
72406;SDS011;60396;47.550;18.828;2023-06-05T10:10:21;8.57;;;2.72;;
72406;SDS011;60396;47.550;18.828;2023-06-05T10:12:49;13.02;;;3.00;;
72406;SDS011;60396;47.550;18.828;2023-06-05T10:15:17;9.02;;;2.55;;
72406;SDS011;60396;47.550;18.828;2023-06-05T10:17:47;9.40;;;3.17;;
72406;SDS011;60396;47.550;18.828;2023-06-05T10:20:15;8.32;;;2.42;;
72406;SDS011;60396;47.550;18.828;2023-06-05T10:22:45;10.20;;;2.78;;
72406;SDS011;60396;47.550;18.828;2023-06-05T10:25:17;9.50;;;3.08;;
72406;SDS011;60396;47.550;18.828;2023-06-05T10:36:43;8.55;;;2.85;;
72406;SDS011;60396;47.550;18.828;2023-06-05T10:39:35;10.40;;;3.87;;
72406;SDS011;60396;47.550;18.828;2023-06-05T10:42:04;8.07;;;2.62;;
72406;SDS011;60396;47.550;18.828;2023-06-05T10:44:41;11.27;;;3.23;;
72406;SDS011;60396;47.550;18.828;2023-06-05T10:52:44;7.00;;;2.75;;
72406;SDS011;60396;47.550;18.828;2023-06-05T10:55:12;11.82;;;3.03;;
72406;SDS011;60396;47.550;18.828;2023-06-05T11:00:30;8.07;;;2.85;;
72406;SDS011;60396;47.550;18.828;2023-06-05T11:02:58;8.35;;;3.05;;
72406;SDS011;60396;47.550;18.828;2023-06-05T11:05:28;8.07;;;2.90;;
72406;SDS011;60396;47.550;18.828;2023-06-05T11:08:13;9.05;;;2.87;;
72406;SDS011;60396;47.550;18.828;2023-06-05T11:16:28;8.55;;;2.25;;
72406;SDS011;60396;47.550;18.828;2023-06-05T11:22:02;7.25;;;2.65;;
72406;SDS011;60396;47.550;18.828;2023-06-05T11:24:33;8.30;;;2.70;;
72406;SDS011;60396;47.550;18.828;2023-06-05T11:27:02;7.30;;;2.47;;
72406;SDS011;60396;47.550;18.828;2023-06-05T11:29:31;7.22;;;2.37;;
72406;SDS011;60396;47.550;18.828;2023-06-05T11:32:00;10.43;;;2.70;;
72406;SDS011;60396;47.550;18.828;2023-06-05T11:34:28;8.68;;;2.70;;
72406;SDS011;60396;47.550;18.828;2023-06-05T11:36:56;8.83;;;2.23;;
72406;SDS011;60396;47.550;18.828;2023-06-05T11:39:43;8.70;;;2.20;;
72406;SDS011;60396;47.550;18.828;2023-06-05T11:42:10;12.32;;;2.42;;
72406;SDS011;60396;47.550;18.828;2023-06-05T11:44:38;7.75;;;2.25;;
72406;SDS011;60396;47.550;18.828;2023-06-05T11:47:06;9.52;;;2.72;;
72406;SDS011;60396;47.550;18.828;2023-06-05T11:49:33;8.13;;;2.10;;
72406;SDS011;60396;47.550;18.828;2023-06-05T11:52:01;9.25;;;2.05;;
72406;SDS011;60396;47.550;18.828;2023-06-05T11:54:30;6.65;;;1.80;;
72406;SDS011;60396;47.550;18.828;2023-06-05T11:57:01;9.98;;;2.25;;
72406;SDS011;60396;47.550;18.828;2023-06-05T11:59:38;10.27;;;2.83;;
72406;SDS011;60396;47.550;18.828;2023-06-05T12:02:06;10.03;;;2.07;;
72406;SDS011;60396;47.550;18.828;2023-06-05T12:04:34;7.12;;;2.40;;
72406;SDS011;60396;47.550;18.828;2023-06-05T12:07:02;8.95;;;2.00;;
72406;SDS011;60396;47.550;18.828;2023-06-05T12:09:30;7.80;;;2.30;;
72406;SDS011;60396;47.550;18.828;2023-06-05T12:12:04;6.30;;;2.05;;
72406;SDS011;60396;47.550;18.828;2023-06-05T12:14:35;6.70;;;2.07;;
72406;SDS011;60396;47.550;18.828;2023-06-05T12:17:10;8.23;;;2.10;;
72406;SDS011;60396;47.550;18.828;2023-06-05T12:19:39;9.98;;;2.60;;
72406;SDS011;60396;47.550;18.828;2023-06-05T12:22:08;8.25;;;2.50;;
72406;SDS011;60396;47.550;18.828;2023-06-05T12:24:39;7.47;;;2.25;;
72406;SDS011;60396;47.550;18.828;2023-06-05T12:27:07;7.13;;;2.50;;
72406;SDS011;60396;47.550;18.828;2023-06-05T12:29:36;6.43;;;2.30;;
72406;SDS011;60396;47.550;18.828;2023-06-05T12:32:20;7.30;;;2.37;;
72406;SDS011;60396;47.550;18.828;2023-06-05T12:34:50;7.53;;;2.35;;
72406;SDS011;60396;47.550;18.828;2023-06-05T12:39:49;7.13;;;2.40;;
72406;SDS011;60396;47.550;18.828;2023-06-05T12:42:17;8.20;;;2.50;;
72406;SDS011;60396;47.550;18.828;2023-06-05T12:44:45;7.68;;;2.33;;
72406;SDS011;60396;47.550;18.828;2023-06-05T12:47:13;11.98;;;2.53;;
72406;SDS011;60396;47.550;18.828;2023-06-05T12:49:40;6.80;;;2.47;;
72406;SDS011;60396;47.550;18.828;2023-06-05T12:52:09;10.50;;;3.13;;
72406;SDS011;60396;47.550;18.828;2023-06-05T12:54:36;7.78;;;2.58;;
72406;SDS011;60396;47.550;18.828;2023-06-05T12:57:04;8.50;;;2.72;;
72406;SDS011;60396;47.550;18.828;2023-06-05T12:59:39;6.57;;;2.40;;
72406;SDS011;60396;47.550;18.828;2023-06-05T13:02:07;8.75;;;2.58;;
72406;SDS011;60396;47.550;18.828;2023-06-05T13:04:35;7.20;;;2.63;;
72406;SDS011;60396;47.550;18.828;2023-06-05T13:07:03;9.88;;;2.65;;
72406;SDS011;60396;47.550;18.828;2023-06-05T13:09:32;9.15;;;2.47;;
72406;SDS011;60396;47.550;18.828;2023-06-05T13:12:00;11.18;;;2.50;;
72406;SDS011;60396;47.550;18.828;2023-06-05T13:14:29;10.73;;;2.47;;
72406;SDS011;60396;47.550;18.828;2023-06-05T13:16:58;7.40;;;2.60;;
72406;SDS011;60396;47.550;18.828;2023-06-05T13:19:26;9.82;;;2.80;;
72406;SDS011;60396;47.550;18.828;2023-06-05T13:21:54;8.68;;;2.75;;
72406;SDS011;60396;47.550;18.828;2023-06-05T13:24:22;9.38;;;2.30;;
72406;SDS011;60396;47.550;18.828;2023-06-05T13:26:50;9.70;;;2.72;;
72406;SDS011;60396;47.550;18.828;2023-06-05T13:29:18;8.10;;;2.33;;
72406;SDS011;60396;47.550;18.828;2023-06-05T13:31:45;9.85;;;2.50;;
72406;SDS011;60396;47.550;18.828;2023-06-05T13:34:13;7.72;;;2.35;;
72406;SDS011;60396;47.550;18.828;2023-06-05T13:36:41;15.05;;;3.17;;
72406;SDS011;60396;47.550;18.828;2023-06-05T13:39:09;10.25;;;2.47;;
72406;SDS011;60396;47.550;18.828;2023-06-05T13:41:37;9.70;;;2.30;;
72406;SDS011;60396;47.550;18.828;2023-06-05T13:44:05;7.53;;;2.50;;
72406;SDS011;60396;47.550;18.828;2023-06-05T13:46:33;9.50;;;2.40;;
72406;SDS011;60396;47.550;18.828;2023-06-05T13:49:00;7.95;;;2.12;;
72406;SDS011;60396;47.550;18.828;2023-06-05T13:51:28;10.60;;;2.20;;
72406;SDS011;60396;47.550;18.828;2023-06-05T13:53:56;9.13;;;2.50;;
72406;SDS011;60396;47.550;18.828;2023-06-05T13:56:24;12.45;;;2.40;;
72406;SDS011;60396;47.550;18.828;2023-06-05T13:58:53;11.80;;;2.53;;
72406;SDS011;60396;47.550;18.828;2023-06-05T14:01:21;7.65;;;2.28;;
72406;SDS011;60396;47.550;18.828;2023-06-05T14:03:49;7.25;;;2.42;;
72406;SDS011;60396;47.550;18.828;2023-06-05T14:06:17;6.97;;;2.03;;
72406;SDS011;60396;47.550;18.828;2023-06-05T14:08:45;15.88;;;2.50;;
72406;SDS011;60396;47.550;18.828;2023-06-05T14:11:13;15.35;;;2.42;;
72406;SDS011;60396;47.550;18.828;2023-06-05T14:13:42;9.73;;;2.53;;
72406;SDS011;60396;47.550;18.828;2023-06-05T14:16:09;7.40;;;2.30;;
72406;SDS011;60396;47.550;18.828;2023-06-05T14:18:39;10.07;;;2.10;;
72406;SDS011;60396;47.550;18.828;2023-06-05T14:21:07;11.93;;;2.53;;
72406;SDS011;60396;47.550;18.828;2023-06-05T14:23:34;6.10;;;1.83;;
72406;SDS011;60396;47.550;18.828;2023-06-05T14:26:03;7.62;;;2.30;;
72406;SDS011;60396;47.550;18.828;2023-06-05T14:28:31;15.82;;;2.10;;
72406;SDS011;60396;47.550;18.828;2023-06-05T14:30:58;7.40;;;2.30;;
72406;SDS011;60396;47.550;18.828;2023-06-05T14:33:26;6.82;;;2.42;;
72406;SDS011;60396;47.550;18.828;2023-06-05T14:35:54;5.72;;;2.10;;
72406;SDS011;60396;47.550;18.828;2023-06-05T14:38:22;8.55;;;2.60;;
72406;SDS011;60396;47.550;18.828;2023-06-05T14:40:49;7.18;;;2.67;;
72406;SDS011;60396;47.550;18.828;2023-06-05T14:43:18;6.23;;;2.23;;
72406;SDS011;60396;47.550;18.828;2023-06-05T14:45:46;7.15;;;2.15;;
72406;SDS011;60396;47.550;18.828;2023-06-05T14:48:14;9.52;;;1.92;;
72406;SDS011;60396;47.550;18.828;2023-06-05T14:50:41;7.00;;;1.80;;
72406;SDS011;60396;47.550;18.828;2023-06-05T14:53:09;7.68;;;1.95;;
72406;SDS011;60396;47.550;18.828;2023-06-05T14:55:38;9.07;;;2.50;;
72406;SDS011;60396;47.550;18.828;2023-06-05T14:58:05;10.88;;;2.28;;
72406;SDS011;60396;47.550;18.828;2023-06-05T15:00:34;6.78;;;2.00;;
72406;SDS011;60396;47.550;18.828;2023-06-05T15:03:02;9.18;;;2.20;;
72406;SDS011;60396;47.550;18.828;2023-06-05T15:05:30;6.25;;;2.10;;
72406;SDS011;60396;47.550;18.828;2023-06-05T15:07:58;6.97;;;2.30;;
72406;SDS011;60396;47.550;18.828;2023-06-05T15:10:26;6.03;;;2.33;;
72406;SDS011;60396;47.550;18.828;2023-06-05T15:12:54;10.95;;;2.80;;
72406;SDS011;60396;47.550;18.828;2023-06-05T15:15:23;12.40;;;2.60;;
72406;SDS011;60396;47.550;18.828;2023-06-05T15:17:52;9.45;;;2.15;;